Time;durP1;ratioP1;P1;durP2;ratioP2;P2;SDS_P1;SDS_P2;PMS_P1;PMS_P2;Temp;Humidity;BMP_temperature;BMP_pressure;BME280_temperature;BME280_humidity;BME280_pressure;Samples;Min_cycle;Max_cycle;Signal;HPM_P1;HPM_P2
2022/12/30 00:00:57;;;;;;;;;8.33;8.00;;;;;6.98;100.00;100916.50;5076937;28;45537;-75
2022/12/30 00:03:23;;;;;;;;;10.00;9.67;;;;;6.97;100.00;100926.22;5077328;28;45600;-75
2022/12/30 00:05:49;;;;;;;;;13.00;12.00;;;;;6.98;100.00;100929.69;5077190;28;45489;-76
2022/12/30 00:10:58;;;;;;;;;6.67;6.00;;;;;6.94;100.00;100922.06;5080471;28;45473;-75
2022/12/30 00:34:01;;;;;;;;;12.67;8.67;;;;;6.82;100.00;100916.13;5080563;28;45570;-75
2022/12/30 00:36:29;;;;;;;;;8.67;8.00;;;;;6.81;100.00;100917.13;5078303;28;45363;-75
2022/12/30 00:38:54;;;;;;;;;8.33;7.33;;;;;6.85;100.00;100911.56;5062267;28;45800;-75
2022/12/30 00:44:04;;;;;;;;;11.00;9.33;;;;;6.71;100.00;100887.28;5080269;28;45449;-76
2022/12/30 00:46:30;;;;;;;;;7.33;7.33;;;;;6.76;100.00;100894.75;5079868;28;46029;-75
2022/12/30 00:57:08;;;;;;;;;12.00;10.00;;;;;6.74;100.00;100865.00;5080650;28;45881;-76
2022/12/30 00:59:33;;;;;;;;;11.00;10.00;;;;;6.81;100.00;100879.28;5061724;28;45942;-76
2022/12/30 01:01:58;;;;;;;;;11.00;9.33;;;;;6.81;100.00;100884.56;5080411;28;45324;-75
2022/12/30 01:04:24;;;;;;;;;12.33;6.00;;;;;6.81;100.00;100885.41;5080060;28;45413;-76
2022/12/30 01:06:49;;;;;;;;;10.00;8.00;;;;;6.85;100.00;100888.59;5058425;28;47025;-75
2022/12/30 01:09:14;;;;;;;;;10.00;9.00;;;;;6.77;100.00;100876.09;5076592;28;45478;-75
2022/12/30 01:11:40;;;;;;;;;7.33;7.00;;;;;6.87;100.00;100886.63;5061850;28;45390;-76
2022/12/30 01:14:05;;;;;;;;;11.33;9.00;;;;;6.84;100.00;100868.44;5079729;28;45645;-76
2022/12/30 01:16:31;;;;;;;;;10.33;6.33;;;;;6.91;100.00;100877.44;5059340;28;48193;-75
2022/12/30 01:18:56;;;;;;;;;9.00;6.67;;;;;6.89;100.00;100868.81;5079683;27;45476;-75
2022/12/30 01:21:22;;;;;;;;;11.00;8.67;;;;;6.91;100.00;100880.06;5079801;28;45421;-75
2022/12/30 01:23:47;;;;;;;;;10.33;8.33;;;;;6.93;100.00;100883.41;5079752;28;45464;-75
2022/12/30 01:26:13;;;;;;;;;9.33;9.33;;;;;6.93;100.00;100877.28;5060771;28;47140;-75
2022/12/30 01:28:38;;;;;;;;;10.00;9.00;;;;;6.90;100.00;100877.59;5079426;28;45450;-76
2022/12/30 01:31:06;;;;;;;;;8.67;6.33;;;;;6.91;100.00;100874.78;5077780;28;45463;-75
2022/12/30 01:33:32;;;;;;;;;10.00;9.33;;;;;6.90;100.00;100862.56;5079671;28;45378;-75
2022/12/30 01:35:57;;;;;;;;;6.33;6.00;;;;;6.97;100.00;100877.84;5077337;28;46278;-75
2022/12/30 01:38:23;;;;;;;;;10.00;6.00;;;;;6.95;100.00;100856.84;5079358;28;45403;-76
2022/12/30 01:40:48;;;;;;;;;12.67;9.67;;;;;6.85;100.00;100833.09;5053612;28;45511;-75
2022/12/30 01:43:16;;;;;;;;;7.33;7.33;;;;;6.93;100.00;100859.63;5058261;28;45951;-76
2022/12/30 01:45:48;;;;;;;;;9.67;6.33;;;;;6.98;100.00;100856.56;5045425;28;47297;-75
2022/12/30 01:48:25;;;;;;;;;9.33;7.33;;;;;7.00;100.00;100865.16;5076662;28;46757;-76
2022/12/30 01:51:05;;;;;;;;;6.67;6.33;;;;;6.95;100.00;100854.19;5079536;28;45489;-75
2022/12/30 01:53:44;;;;;;;;;9.33;7.33;;;;;6.97;100.00;100854.88;5045640;28;47390;-75
2022/12/30 01:56:24;;;;;;;;;10.67;9.00;;;;;7.06;100.00;100853.16;5074946;28;45441;-75
2022/12/30 01:59:11;;;;;;;;;14.00;10.33;;;;;7.09;100.00;100858.13;5078884;28;45492;-75
2022/12/30 02:01:38;;;;;;;;;6.00;5.67;;;;;7.05;100.00;100854.13;5055213;28;45300;-75
2022/12/30 02:04:08;;;;;;;;;7.33;6.00;;;;;7.15;100.00;100862.84;5057679;28;46288;-75
2022/12/30 02:07:01;;;;;;;;;11.00;10.33;;;;;7.18;100.00;100862.53;5071679;28;45447;-75
2022/12/30 02:09:27;;;;;;;;;7.67;6.00;;;;;7.14;100.00;100847.13;5076458;28;45920;-76
2022/12/30 02:11:54;;;;;;;;;7.00;6.33;;;;;7.20;100.00;100859.75;5079302;28;45604;-75
2022/12/30 02:14:20;;;;;;;;;10.67;8.00;;;;;7.21;100.00;100848.19;5060012;28;46365;-75
2022/12/30 02:17:21;;;;;;;;;11.33;9.67;;;;;7.28;100.00;100853.72;5060590;28;48342;-75
2022/12/30 02:19:49;;;;;;;;;9.33;7.00;;;;;7.36;100.00;100859.09;5055590;27;45471;-76
2022/12/30 02:22:14;;;;;;;;;7.33;7.33;;;;;7.44;100.00;100866.28;5078733;28;45505;-75
2022/12/30 02:24:58;;;;;;;;;10.33;10.33;;;;;7.52;100.00;100869.00;5060807;28;46324;-75
2022/12/30 02:27:26;;;;;;;;;7.00;7.00;;;;;7.58;100.00;100860.44;5073564;28;45453;-76
2022/12/30 02:30:20;;;;;;;;;8.67;8.67;;;;;7.64;100.00;100864.31;5071628;28;45422;-75
2022/12/30 02:33:08;;;;;;;;;9.00;9.00;;;;;7.71;100.00;100869.81;5076471;28;45464;-75
2022/12/30 02:35:51;;;;;;;;;12.33;11.33;;;;;7.78;100.00;100873.50;5065335;28;45419;-76
2022/12/30 02:38:16;;;;;;;;;10.00;10.00;;;;;7.83;100.00;100867.78;5076646;28;45971;-75
2022/12/30 02:46:47;;;;;;;;;12.00;10.00;;;;;7.92;100.00;100840.41;5078112;28;46742;-75
2022/12/30 02:49:14;;;;;;;;;9.67;9.67;;;;;7.96;100.00;100835.59;5060149;28;46812;-75
2022/12/30 02:52:18;;;;;;;;;8.67;7.33;;;;;8.00;100.00;100836.97;5055946;28;46035;-76
2022/12/30 02:54:35;;;;;;;;;10.67;10.67;;;;;8.04;100.00;100822.44;5073026;28;45576;-75
2022/12/30 02:57:00;;;;;;;;;9.33;7.33;;;;;8.07;100.00;100816.00;5077409;28;45450;-75
2022/12/30 03:05:35;;;;;;;;;11.00;11.00;;;;;8.20;100.00;100808.47;5069253;28;45446;-76
2022/12/30 03:08:19;;;;;;;;;12.33;9.33;;;;;8.23;100.00;100799.38;5066539;28;45360;-75
2022/12/30 03:11:16;;;;;;;;;7.67;7.00;;;;;8.16;100.00;100785.94;5059426;28;48442;-75
2022/12/30 03:13:56;;;;;;;;;8.00;7.33;;;;;8.26;100.00;100796.41;5078027;28;45662;-76
2022/12/30 03:16:34;;;;;;;;;8.00;8.00;;;;;8.22;100.00;100784.47;5059834;28;45883;-76
2022/12/30 03:19:03;;;;;;;;;8.67;6.67;;;;;8.29;100.00;100797.94;5059435;27;47543;-75
2022/12/30 03:21:33;;;;;;;;;8.00;6.00;;;;;8.33;100.00;100799.28;5088925;27;45407;-76
2022/12/30 03:27:03;;;;;;;;;7.00;7.00;;;;;8.32;100.00;100794.97;5098358;27;45398;-76
2022/12/30 03:29:34;;;;;;;;;6.00;6.00;;;;;8.39;100.00;100792.50;5097424;27;45476;-76
2022/12/30 03:32:01;;;;;;;;;7.00;7.00;;;;;8.34;100.00;100777.09;5097935;27;45478;-75
2022/12/30 03:34:27;;;;;;;;;8.00;6.33;;;;;8.35;100.00;100770.78;5068644;27;45874;-76
2022/12/30 03:37:00;;;;;;;;;7.00;7.00;;;;;8.39;100.00;100780.09;5095743;27;45473;-76
2022/12/30 03:39:35;;;;;;;;;5.00;5.00;;;;;8.38;100.00;100781.06;5098161;27;45533;-75
2022/12/30 03:42:04;;;;;;;;;6.33;6.33;;;;;8.41;100.00;100783.41;5076637;27;47416;-76
2022/12/30 03:44:31;;;;;;;;;5.00;5.00;;;;;8.38;100.00;100764.38;5089925;27;45394;-76
2022/12/30 03:46:56;;;;;;;;;6.00;6.00;;;;;8.32;100.00;100752.59;5097664;27;45406;-76
2022/12/30 03:49:21;;;;;;;;;4.00;3.33;;;;;8.39;100.00;100768.66;5098074;27;45351;-76
2022/12/30 03:51:47;;;;;;;;;7.00;7.00;;;;;8.37;100.00;100774.13;5098043;27;45412;-75
2022/12/30 03:54:12;;;;;;;;;5.33;4.00;;;;;8.30;100.00;100755.41;5098087;27;45461;-75
2022/12/30 03:56:37;;;;;;;;;4.33;3.33;;;;;8.29;100.00;100756.38;5098280;27;45445;-75
2022/12/30 03:59:03;;;;;;;;;6.33;5.33;;;;;8.33;100.00;100764.84;5098164;27;45391;-76
2022/12/30 04:01:28;;;;;;;;;5.00;4.00;;;;;8.20;100.00;100744.91;5065773;27;47355;-74
2022/12/30 04:03:54;;;;;;;;;7.67;5.00;;;;;8.35;100.00;100765.50;5098211;27;45470;-75
2022/12/30 04:06:19;;;;;;;;;4.67;4.00;;;;;8.35;100.00;100760.19;5094413;27;45615;-75
2022/12/30 04:08:45;;;;;;;;;6.00;6.00;;;;;8.31;100.00;100746.47;5090427;27;45458;-75
2022/12/30 04:11:10;;;;;;;;;5.00;5.00;;;;;8.37;100.00;100752.94;5079176;27;46998;-75
2022/12/30 04:13:35;;;;;;;;;3.67;3.67;;;;;8.34;100.00;100742.66;5095792;27;45641;-76
2022/12/30 04:16:01;;;;;;;;;6.67;6.67;;;;;8.41;100.00;100754.28;5096275;27;45385;-75
2022/12/30 04:18:26;;;;;;;;;4.00;4.00;;;;;8.42;100.00;100753.31;5097860;27;45401;-76
2022/12/30 04:20:51;;;;;;;;;4.33;3.67;;;;;8.45;100.00;100755.59;5077970;27;46136;-76
2022/12/30 04:23:17;;;;;;;;;5.33;5.33;;;;;8.50;100.00;100749.03;5076968;28;45482;-75
2022/12/30 04:25:43;;;;;;;;;7.00;6.00;;;;;8.51;100.00;100740.06;5064084;28;45848;-76
2022/12/30 04:28:08;;;;;;;;;5.33;4.67;;;;;8.56;100.00;100746.59;5077328;28;45473;-75
2022/12/30 04:30:34;;;;;;;;;6.67;6.33;;;;;8.55;100.00;100744.94;5076709;28;46280;-76
2022/12/30 04:32:59;;;;;;;;;7.00;6.00;;;;;8.55;100.00;100733.50;5047831;28;46171;-76
2022/12/30 04:35:25;;;;;;;;;6.00;5.00;;;;;8.54;100.00;100737.16;5063453;27;45529;-76
2022/12/30 04:37:50;;;;;;;;;5.00;5.00;;;;;8.58;100.00;100738.47;5058668;28;45832;-75
2022/12/30 04:40:16;;;;;;;;;4.33;3.67;;;;;8.58;100.00;100735.81;5075491;28;46104;-75
2022/12/30 04:42:42;;;;;;;;;2.00;2.00;;;;;8.59;100.00;100721.56;5076770;28;45608;-75
2022/12/30 04:45:08;;;;;;;;;3.33;3.33;;;;;8.56;100.00;100721.94;5076791;28;45437;-76
2022/12/30 04:47:33;;;;;;;;;3.00;3.00;;;;;8.59;100.00;100716.28;5076748;28;45569;-76
2022/12/30 04:49:59;;;;;;;;;4.00;4.00;;;;;8.60;100.00;100712.66;5055247;28;48169;-76
2022/12/30 04:52:24;;;;;;;;;5.67;5.00;;;;;8.66;100.00;100714.66;5068868;28;45517;-75
2022/12/30 04:54:49;;;;;;;;;4.00;4.00;;;;;8.67;100.00;100726.91;5058761;28;45635;-75
2022/12/30 04:57:15;;;;;;;;;5.33;5.00;;;;;8.65;100.00;100709.53;5080441;28;45529;-75
2022/12/30 04:59:40;;;;;;;;;5.00;4.00;;;;;8.73;100.00;100719.28;5079922;28;45440;-75
2022/12/30 05:02:06;;;;;;;;;5.00;5.00;;;;;8.69;100.00;100709.03;5080058;28;45505;-75
2022/12/30 05:04:31;;;;;;;;;4.00;4.00;;;;;8.73;100.00;100695.44;5049021;28;45384;-75
2022/12/30 05:06:56;;;;;;;;;6.00;6.00;;;;;8.75;100.00;100691.66;5058474;28;46020;-75
2022/12/30 05:09:22;;;;;;;;;6.00;4.00;;;;;8.76;100.00;100676.56;5076173;28;46250;-75
2022/12/30 05:11:47;;;;;;;;;6.00;5.00;;;;;8.81;100.00;100682.22;5061937;28;45403;-75
2022/12/30 05:14:12;;;;;;;;;6.67;6.67;;;;;8.81;100.00;100672.47;5078852;28;45481;-75
2022/12/30 05:16:38;;;;;;;;;6.67;5.00;;;;;8.66;100.00;100663.47;5078930;28;45493;-75
2022/12/30 05:19:03;;;;;;;;;5.33;4.67;;;;;8.53;100.00;100645.41;5079750;27;45525;-75
2022/12/30 05:21:28;;;;;;;;;7.67;7.33;;;;;8.63;100.00;100669.09;5058408;28;45442;-75
2022/12/30 05:26:38;;;;;;;;;6.00;6.00;;;;;8.55;100.00;100644.25;5079759;28;45395;-75
2022/12/30 05:29:03;;;;;;;;;7.00;5.00;;;;;8.57;100.00;100646.75;5079607;28;45517;-75
2022/12/30 05:31:29;;;;;;;;;7.33;6.33;;;;;8.52;100.00;100636.59;5079826;28;45476;-76
2022/12/30 05:33:54;;;;;;;;;7.00;6.67;;;;;8.55;100.00;100640.78;5079762;28;45311;-76
2022/12/30 05:36:20;;;;;;;;;7.00;7.00;;;;;8.54;100.00;100637.31;5053353;28;47113;-75
2022/12/30 05:38:45;;;;;;;;;8.67;5.00;;;;;8.45;100.00;100617.88;5079274;28;45736;-76
2022/12/30 05:41:11;;;;;;;;;6.33;5.67;;;;;8.59;100.00;100631.50;5079571;28;45600;-76
2022/12/30 05:43:37;;;;;;;;;6.00;5.00;;;;;8.58;100.00;100625.41;5061323;28;45462;-75
2022/12/30 05:46:02;;;;;;;;;4.33;4.33;;;;;8.54;100.00;100610.00;5058112;28;45864;-76
2022/12/30 05:48:28;;;;;;;;;5.00;4.00;;;;;8.62;100.00;100627.72;5078856;27;45407;-75
2022/12/30 05:50:53;;;;;;;;;6.33;5.00;;;;;8.60;100.00;100614.63;5079647;28;45384;-76
2022/12/30 05:53:19;;;;;;;;;3.00;3.00;;;;;8.62;100.00;100599.38;5061479;28;45419;-75
2022/12/30 05:55:44;;;;;;;;;5.00;5.00;;;;;8.64;100.00;100589.47;5079386;28;45508;-75
2022/12/30 05:58:11;;;;;;;;;6.00;4.67;;;;;8.74;100.00;100596.44;5079170;28;45417;-76
2022/12/30 06:00:38;;;;;;;;;8.33;6.33;;;;;8.75;100.00;100598.91;5079582;28;45493;-76
2022/12/30 06:03:03;;;;;;;;;3.33;3.33;;;;;8.77;100.00;100585.50;5079143;28;45486;-76
2022/12/30 06:05:29;;;;;;;;;2.67;2.67;;;;;8.75;100.00;100566.28;5061317;28;47239;-76
2022/12/30 06:07:54;;;;;;;;;10.00;6.00;;;;;8.71;100.00;100552.53;5056443;28;46961;-75
2022/12/30 06:10:19;;;;;;;;;3.33;3.00;;;;;8.81;100.00;100547.06;5072015;28;45457;-76
2022/12/30 06:12:44;;;;;;;;;1.67;1.00;;;;;8.83;100.00;100550.38;5079167;28;45491;-76
2022/12/30 06:15:10;;;;;;;;;4.00;3.33;;;;;8.94;100.00;100550.03;5078846;28;45814;-76
2022/12/30 06:17:35;;;;;;;;;3.00;3.00;;;;;9.03;100.00;100534.94;5079315;28;45851;-76
2022/12/30 06:20:01;;;;;;;;;3.00;3.00;;;;;8.97;100.00;100535.59;5079244;27;45540;-75
2022/12/30 06:22:26;;;;;;;;;3.33;2.00;;;;;8.87;100.00;100514.59;5065659;28;45540;-75
2022/12/30 06:24:51;;;;;;;;;3.33;3.33;;;;;8.94;100.00;100506.78;5076879;28;45757;-75
2022/12/30 06:27:17;;;;;;;;;4.33;4.00;;;;;8.97;100.00;100509.09;5060684;28;47090;-76
2022/12/30 06:29:42;;;;;;;;;6.00;4.67;;;;;8.96;100.00;100510.94;5077248;28;45483;-76
2022/12/30 06:32:07;;;;;;;;;5.00;4.67;;;;;8.95;100.00;100506.63;5076897;28;45474;-76
2022/12/30 06:34:33;;;;;;;;;3.67;3.00;;;;;8.93;100.00;100492.72;5078870;28;45578;-75
2022/12/30 06:36:58;;;;;;;;;4.33;4.33;;;;;8.92;100.00;100485.75;5078460;28;45488;-75
2022/12/30 06:39:23;;;;;;;;;5.00;2.33;;;;;8.90;100.00;100479.81;5076991;28;45478;-76
2022/12/30 06:41:49;;;;;;;;;3.67;3.00;;;;;8.98;100.00;100494.84;5078782;28;46747;-75
2022/12/30 06:44:14;;;;;;;;;4.33;3.00;;;;;9.12;100.00;100479.22;5079281;28;45582;-76
2022/12/30 06:46:39;;;;;;;;;3.00;3.00;;;;;9.12;100.00;100464.16;5077501;28;45659;-76
2022/12/30 06:49:05;;;;;;;;;4.00;3.00;;;;;9.13;100.00;100475.59;5059548;28;45376;-76
2022/12/30 06:51:30;;;;;;;;;2.00;2.00;;;;;9.06;100.00;100465.66;5077664;27;45321;-75
2022/12/30 06:53:56;;;;;;;;;4.33;3.00;;;;;9.01;100.00;100440.66;5069596;28;45563;-76
2022/12/30 06:56:21;;;;;;;;;3.67;3.67;;;;;9.11;100.00;100449.25;5078687;28;46014;-76
2022/12/30 06:58:47;;;;;;;;;2.33;2.33;;;;;9.09;100.00;100427.38;5067075;28;45450;-77
2022/12/30 07:01:12;;;;;;;;;2.00;2.00;;;;;9.12;100.00;100424.38;5056947;28;45549;-77
2022/12/30 07:03:38;;;;;;;;;4.00;3.00;;;;;9.22;100.00;100434.78;5080222;28;45449;-77
2022/12/30 07:06:04;;;;;;;;;3.67;3.67;;;;;9.20;100.00;100413.75;5078723;28;47226;-77
2022/12/30 07:08:29;;;;;;;;;3.67;3.00;;;;;9.21;100.00;100420.69;5077750;28;45379;-77
2022/12/30 07:10:55;;;;;;;;;2.00;2.00;;;;;9.17;100.00;100410.59;5060073;28;45640;-76
2022/12/30 07:13:20;;;;;;;;;3.00;3.00;;;;;9.32;100.00;100421.31;5078738;28;45275;-76
2022/12/30 07:15:47;;;;;;;;;2.67;2.67;;;;;9.30;100.00;100425.94;5078448;28;45434;-77
2022/12/30 07:18:12;;;;;;;;;4.00;3.00;;;;;9.29;100.00;100413.69;5078738;28;45438;-75
2022/12/30 07:20:38;;;;;;;;;5.67;3.67;;;;;9.35;100.00;100420.97;5077420;27;45370;-75
2022/12/30 07:23:03;;;;;;;;;5.33;5.33;;;;;9.34;100.00;100419.31;5077914;28;46169;-75
2022/12/30 07:25:29;;;;;;;;;5.00;4.00;;;;;9.35;100.00;100407.69;5064930;27;47229;-75
2022/12/30 07:28:02;;;;;;;;;8.00;7.00;;;;;9.36;100.00;100408.53;5098473;27;45452;-75
2022/12/30 07:30:29;;;;;;;;;7.33;5.67;;;;;9.34;100.00;100390.16;5098353;27;45525;-75
2022/12/30 07:32:54;;;;;;;;;5.33;3.33;;;;;9.34;100.00;100392.78;5098032;27;45824;-76
2022/12/30 07:35:19;;;;;;;;;4.33;3.33;;;;;9.32;100.00;100392.13;5070337;27;48378;-76
2022/12/30 07:37:45;;;;;;;;;4.00;3.00;;;;;9.32;100.00;100379.72;5074239;27;45329;-75
2022/12/30 07:40:10;;;;;;;;;6.00;4.00;;;;;9.33;100.00;100385.81;5095905;27;45593;-75
2022/12/30 07:42:36;;;;;;;;;8.33;6.00;;;;;9.25;100.00;100375.28;5098127;27;45549;-76
2022/12/30 07:45:01;;;;;;;;;4.33;3.67;;;;;9.25;100.00;100362.81;5076018;28;47017;-75
2022/12/30 07:47:31;;;;;;;;;7.00;6.00;;;;;9.28;100.00;100380.22;5089173;27;45457;-75
2022/12/30 07:49:56;;;;;;;;;6.67;4.67;;;;;9.31;100.00;100374.59;5098013;27;45407;-75
2022/12/30 07:52:22;;;;;;;;;4.67;3.67;;;;;9.27;100.00;100360.84;5098113;27;45602;-75
2022/12/30 07:54:47;;;;;;;;;6.00;4.00;;;;;9.29;100.00;100360.66;5084585;27;45601;-75
2022/12/30 07:57:12;;;;;;;;;4.00;4.00;;;;;9.29;100.00;100364.16;5076182;28;45961;-76
2022/12/30 07:59:38;;;;;;;;;1.33;1.33;;;;;9.29;100.00;100352.69;5095271;27;45457;-75
2022/12/30 08:02:03;;;;;;;;;3.00;3.00;;;;;9.30;100.00;100360.47;5091702;27;46461;-76
2022/12/30 08:04:28;;;;;;;;;3.33;3.33;;;;;9.27;100.00;100352.88;5094777;27;45687;-78
2022/12/30 08:06:54;;;;;;;;;2.67;2.67;;;;;9.27;100.00;100350.22;5096284;27;45431;-78
2022/12/30 08:09:19;;;;;;;;;2.00;2.00;;;;;9.33;100.00;100354.00;5097927;27;45579;-77
2022/12/30 08:11:44;;;;;;;;;4.00;4.00;;;;;9.43;100.00;100351.94;5095765;27;45401;-77
2022/12/30 08:14:10;;;;;;;;;6.00;3.00;;;;;9.49;100.00;100352.25;5097465;27;47154;-77
2022/12/30 08:16:35;;;;;;;;;6.00;5.00;;;;;9.44;100.00;100335.03;5097819;27;45419;-80
2022/12/30 08:19:00;;;;;;;;;3.00;1.33;;;;;9.52;100.00;100343.94;5071893;27;45521;-79
2022/12/30 08:21:29;;;;;;;;;3.00;3.00;;;;;9.44;100.00;100313.81;5077834;27;46280;-78
2022/12/30 08:23:54;;;;;;;;;1.00;1.00;;;;;9.54;100.00;100336.59;5094116;27;46602;-78
2022/12/30 08:26:22;;;;;;;;;2.00;2.00;;;;;9.56;100.00;100332.81;5062827;28;45540;-78
2022/12/30 08:28:48;;;;;;;;;3.00;3.00;;;;;9.58;100.00;100319.34;5086954;27;45353;-78
2022/12/30 08:31:16;;;;;;;;;2.00;2.00;;;;;9.60;100.00;100318.16;5072730;27;47330;-82
2022/12/30 08:33:42;;;;;;;;;3.67;3.33;;;;;9.60;100.00;100312.84;5099955;27;45456;-79
2022/12/30 08:36:10;;;;;;;;;4.33;3.67;;;;;9.47;100.00;100281.63;5100911;27;45492;-78
2022/12/30 08:38:39;;;;;;;;;5.00;2.33;;;;;9.49;100.00;100284.09;5082151;27;45536;-79
2022/12/30 08:41:24;;;;;;;;;3.00;3.00;;;;;9.52;100.00;100285.56;5080178;27;46422;-78
2022/12/30 08:43:50;;;;;;;;;3.00;2.00;;;;;9.54;100.00;100295.00;5085417;27;45625;-78
2022/12/30 08:46:17;;;;;;;;;2.00;1.00;;;;;9.54;100.00;100286.19;5100134;27;45714;-77
2022/12/30 08:48:43;;;;;;;;;2.00;2.00;;;;;9.51;100.00;100291.88;5099709;27;45680;-77
2022/12/30 08:51:09;;;;;;;;;4.33;3.00;;;;;9.47;100.00;100281.63;5100365;27;45817;-78
2022/12/30 08:53:35;;;;;;;;;2.00;2.00;;;;;9.46;100.00;100265.91;5069538;27;47288;-78
2022/12/30 08:56:10;;;;;;;;;4.33;2.33;;;;;9.53;100.00;100272.13;5085663;27;45919;-79
2022/12/30 08:58:36;;;;;;;;;2.00;2.00;;;;;9.51;100.00;100257.38;5093385;27;45617;-77
2022/12/30 09:01:15;;;;;;;;;17.00;15.67;;;;;9.51;100.00;100265.34;5091993;27;45859;-78
2022/12/30 09:03:42;;;;;;;;;1.00;1.00;;;;;9.43;100.00;100259.09;5067584;27;46832;-78
2022/12/30 09:06:09;;;;;;;;;3.67;3.00;;;;;9.44;100.00;100257.28;5096785;27;45830;-77
2022/12/30 09:08:35;;;;;;;;;2.00;2.00;;;;;9.43;100.00;100258.28;5082011;27;45470;-79
2022/12/30 09:11:10;;;;;;;;;1.67;1.67;;;;;9.49;100.00;100262.06;5076557;27;46650;-77
2022/12/30 09:13:36;;;;;;;;;2.33;1.33;;;;;9.50;100.00;100234.50;5071701;27;47412;-78
2022/12/30 09:16:04;;;;;;;;;3.00;2.33;;;;;9.46;100.00;100234.06;5091863;27;45512;-78
2022/12/30 09:18:29;;;;;;;;;2.00;2.00;;;;;9.42;100.00;100220.31;5099383;27;45477;-78
2022/12/30 09:20:54;;;;;;;;;1.33;1.33;;;;;9.37;100.00;100208.59;5076118;27;45688;-79
2022/12/30 09:23:20;;;;;;;;;2.00;2.00;;;;;9.43;100.00;100215.84;5077375;28;45279;-80
2022/12/30 09:25:45;;;;;;;;;2.00;2.00;;;;;9.51;100.00;100212.28;5055120;28;45510;-79
2022/12/30 09:28:11;;;;;;;;;2.67;2.67;;;;;9.51;100.00;100199.84;5071763;28;45583;-79
2022/12/30 09:30:36;;;;;;;;;3.00;3.00;;;;;9.47;100.00;100185.31;5060822;28;45873;-78
2022/12/30 09:33:02;;;;;;;;;2.00;2.00;;;;;9.42;100.00;100169.09;5058910;28;48402;-78
2022/12/30 09:35:27;;;;;;;;;3.67;2.33;;;;;9.42;100.00;100161.97;5055723;28;45387;-75
2022/12/30 09:37:52;;;;;;;;;1.67;0.00;;;;;9.53;100.00;100181.09;5066237;27;45497;-79
2022/12/30 09:40:43;;;;;;;;;2.00;2.00;;;;;9.51;100.00;100170.66;5079484;28;45406;-79
2022/12/30 09:43:21;;;;;;;;;3.00;1.67;;;;;9.62;100.00;100184.50;5074929;28;46517;-79
2022/12/30 09:46:26;;;;;;;;;3.00;3.00;;;;;9.67;100.00;100185.59;5078073;28;45348;-78
2022/12/30 09:48:59;;;;;;;;;3.67;2.00;;;;;9.66;100.00;100189.25;5071794;28;45528;-79
2022/12/30 09:51:40;;;;;;;;;2.00;2.00;;;;;9.66;100.00;100176.00;5076144;28;45556;-78
2022/12/30 09:54:13;;;;;;;;;1.00;1.00;;;;;9.74;100.00;100159.16;5075074;28;45536;-78
2022/12/30 09:56:42;;;;;;;;;2.00;2.00;;;;;9.72;100.00;100153.19;5073610;27;45533;-79
2022/12/30 09:59:19;;;;;;;;;1.00;1.00;;;;;9.80;100.00;100149.63;5068872;28;45658;-79
2022/12/30 10:01:48;;;;;;;;;2.00;1.00;;;;;9.82;100.00;100160.91;5046471;28;46142;-79
2022/12/30 10:04:18;;;;;;;;;2.00;2.00;;;;;9.83;100.00;100141.31;5061594;28;46462;-78
2022/12/30 10:06:56;;;;;;;;;1.67;1.00;;;;;9.83;100.00;100123.56;5070522;28;45474;-78
2022/12/30 10:09:47;;;;;;;;;0.67;0.67;;;;;9.96;100.00;100127.38;5072909;28;45413;-80
2022/12/30 10:12:33;;;;;;;;;2.00;1.00;;;;;9.96;100.00;100106.13;5055542;28;46405;-80
2022/12/30 10:15:43;;;;;;;;;2.00;2.00;;;;;10.06;100.00;100111.16;5078859;28;46359;-81
2022/12/30 10:18:34;;;;;;;;;0.33;0.33;;;;;10.09;100.00;100071.78;5075329;28;45734;-79
2022/12/30 10:21:32;;;;;;;;;1.00;1.00;;;;;10.12;100.00;100075.06;5097029;27;45497;-79
2022/12/30 10:24:31;;;;;;;;;2.00;2.00;;;;;10.15;100.00;100056.13;5069440;27;47375;-79
2022/12/30 10:27:00;;;;;;;;;2.00;2.00;;;;;10.14;100.00;100044.66;5098631;27;46393;-78
2022/12/30 10:29:31;;;;;;;;;1.00;1.00;;;;;10.17;100.00;100046.13;5096109;27;45478;-78
2022/12/30 10:32:12;;;;;;;;;1.33;1.33;;;;;10.17;100.00;100040.81;5087828;27;45320;-78
2022/12/30 10:34:37;;;;;;;;;2.00;1.00;;;;;10.10;100.00;100019.50;5077981;27;47330;-78
2022/12/30 10:37:05;;;;;;;;;2.00;2.00;;;;;10.17;100.00;100004.47;5092731;27;45386;-81
2022/12/30 10:39:37;;;;;;;;;4.00;2.00;;;;;10.14;100.00;99991.56;5095173;27;45624;-79
2022/12/30 10:42:17;;;;;;;;;3.00;3.00;;;;;10.27;100.00;99996.19;5087632;27;45536;-80
2022/12/30 10:45:18;;;;;;;;;0.00;0.00;;;;;10.20;100.00;99996.13;5095812;27;45453;-77
2022/12/30 10:48:36;;;;;;;;;1.00;1.00;;;;;10.36;100.00;100012.81;5077284;27;47994;-79
2022/12/30 10:51:02;;;;;;;;;1.33;1.33;;;;;10.32;100.00;99991.13;5032749;28;45483;-77
2022/12/30 10:53:30;;;;;;;;;0.67;0.67;;;;;10.39;100.00;100006.28;5031469;28;45616;-80
2022/12/30 10:55:59;;;;;;;;;2.00;1.00;;;;;10.39;100.00;99993.84;5069321;27;45596;-81
2022/12/30 10:58:41;;;;;;;;;1.00;1.00;;;;;10.34;100.00;99981.13;5077815;27;47244;-80
2022/12/30 11:01:30;;;;;;;;;1.00;1.00;;;;;10.39;100.00;99969.09;5071390;27;45529;-79
2022/12/30 11:03:58;;;;;;;;;3.67;2.00;;;;;10.41;100.00;99961.75;5079887;27;45494;-80
2022/12/30 11:06:37;;;;;;;;;1.00;1.00;;;;;10.51;100.00;99980.88;5077038;27;45618;-81
2022/12/30 11:09:12;;;;;;;;;1.00;1.00;;;;;10.55;100.00;99963.53;5092546;27;45575;-79
2022/12/30 11:14:44;;;;;;;;;1.00;1.00;;;;;10.56;100.00;99919.16;5085978;27;45532;-79
2022/12/30 11:17:16;;;;;;;;;2.67;1.33;;;;;10.68;100.00;99943.38;5098068;27;45440;-79
2022/12/30 11:19:49;;;;;;;;;2.00;2.00;;;;;10.62;100.00;99931.69;5079836;27;48319;-77
2022/12/30 11:22:15;;;;;;;;;2.00;2.00;;;;;10.65;100.00;99943.78;5098451;27;45379;-77
2022/12/30 11:24:55;;;;;;;;;1.33;1.00;;;;;10.72;100.00;99948.09;5076862;28;45427;-78
2022/12/30 11:27:51;;;;;;;;;1.00;1.00;;;;;10.82;100.00;99931.00;5066579;27;47183;-77
2022/12/30 11:30:38;;;;;;;;;2.00;2.00;;;;;10.87;100.00;99920.59;5081342;27;48455;-77
2022/12/30 11:33:13;;;;;;;;;1.67;1.67;;;;;10.87;100.00;99907.31;5098346;27;45972;-78
2022/12/30 11:35:43;;;;;;;;;2.00;2.00;;;;;10.86;100.00;99889.69;5075591;27;45418;-77
2022/12/30 11:38:33;;;;;;;;;0.67;0.67;;;;;10.98;100.00;99909.41;5092466;27;45600;-78
2022/12/30 11:41:17;;;;;;;;;0.00;0.00;;;;;11.06;100.00;99899.63;5098040;27;45685;-77
2022/12/30 11:44:00;;;;;;;;;0.00;0.00;;;;;11.12;100.00;99901.50;5078800;27;46175;-77
2022/12/30 11:46:34;;;;;;;;;1.00;1.00;;;;;11.19;100.00;99898.84;5079345;27;45413;-80
2022/12/30 11:49:18;;;;;;;;;1.00;1.00;;;;;11.23;100.00;99903.56;5076376;27;46333;-80
2022/12/30 11:51:48;;;;;;;;;0.67;0.67;;;;;11.28;100.00;99905.63;5071849;27;48410;-80
2022/12/30 11:54:18;;;;;;;;;0.00;0.00;;;;;11.36;100.00;99896.66;5095561;27;45414;-78
2022/12/30 11:56:51;;;;;;;;;1.00;1.00;;;;;11.35;100.00;99903.81;5069454;27;45379;-80
2022/12/30 11:59:21;;;;;;;;;1.00;1.00;;;;;11.44;100.00;99898.31;5097241;27;45652;-80
2022/12/30 12:01:51;;;;;;;;;1.00;1.00;;;;;11.56;100.00;99894.06;5097042;27;46095;-80
2022/12/30 12:04:38;;;;;;;;;1.00;0.67;;;;;11.62;100.00;99890.56;5096648;27;45535;-78
2022/12/30 12:07:18;;;;;;;;;1.00;1.00;;;;;11.68;100.00;99882.81;5090361;27;45548;-78
2022/12/30 12:09:52;;;;;;;;;1.00;1.00;;;;;11.77;100.00;99894.09;5098878;27;47380;-78
2022/12/30 12:12:24;;;;;;;;;1.00;1.00;;;;;11.76;100.00;99892.44;5097555;27;45418;-79
2022/12/30 12:15:12;;;;;;;;;1.00;1.00;;;;;11.85;100.00;99860.09;5088169;27;45434;-80
2022/12/30 12:17:48;;;;;;;;;1.00;1.00;;;;;11.82;100.00;99860.50;5097551;27;45507;-79
2022/12/30 12:20:23;;;;;;;;;1.00;1.00;;;;;11.93;100.00;99885.69;5089659;27;45356;-78
2022/12/30 12:23:11;;;;;;;;;1.33;0.00;;;;;12.00;100.00;99885.69;5091329;27;45637;-79
2022/12/30 12:26:16;;;;;;;;;1.00;1.00;;;;;12.08;100.00;99864.22;5080627;27;45695;-78
2022/12/30 12:28:44;;;;;;;;;0.00;0.00;;;;;12.16;100.00;99879.19;5088306;27;46626;-77
2022/12/30 12:31:35;;;;;;;;;1.00;1.00;;;;;12.25;100.00;99877.94;5080706;27;47533;-79
2022/12/30 12:34:34;;;;;;;;;1.00;1.00;;;;;12.34;100.00;99883.06;5099585;27;46197;-79